sensor_id;sensor_type;location;lat;lon;timestamp;temperature;humidity
31639;DHT22;18248;51.522;7.020;2022-07-06T00:00:21;17.00;99.90
31639;DHT22;18248;51.522;7.020;2022-07-06T00:03:20;16.90;99.90
31639;DHT22;18248;51.522;7.020;2022-07-06T00:06:18;16.90;99.90
31639;DHT22;18248;51.522;7.020;2022-07-06T00:09:17;16.80;99.90
31639;DHT22;18248;51.522;7.020;2022-07-06T00:12:16;16.70;99.90
31639;DHT22;18248;51.522;7.020;2022-07-06T00:15:14;16.70;99.90
31639;DHT22;18248;51.522;7.020;2022-07-06T00:18:13;16.70;99.90
31639;DHT22;18248;51.522;7.020;2022-07-06T00:21:11;16.60;99.90
31639;DHT22;18248;51.522;7.020;2022-07-06T00:24:10;16.60;99.90
31639;DHT22;18248;51.522;7.020;2022-07-06T00:27:08;16.60;99.90
31639;DHT22;18248;51.522;7.020;2022-07-06T00:30:07;16.50;99.90
31639;DHT22;18248;51.522;7.020;2022-07-06T00:33:06;16.50;99.90
31639;DHT22;18248;51.522;7.020;2022-07-06T00:36:05;16.50;99.90
31639;DHT22;18248;51.522;7.020;2022-07-06T00:39:04;16.50;99.90
31639;DHT22;18248;51.522;7.020;2022-07-06T00:42:02;16.50;99.90
31639;DHT22;18248;51.522;7.020;2022-07-06T00:45:01;16.50;99.90
31639;DHT22;18248;51.522;7.020;2022-07-06T00:48:00;16.50;99.90
31639;DHT22;18248;51.522;7.020;2022-07-06T00:50:58;16.50;99.90
31639;DHT22;18248;51.522;7.020;2022-07-06T00:54:03;16.60;99.90
31639;DHT22;18248;51.522;7.020;2022-07-06T00:57:02;16.60;99.90
31639;DHT22;18248;51.522;7.020;2022-07-06T01:00:03;16.60;99.90
31639;DHT22;18248;51.522;7.020;2022-07-06T01:03:01;16.60;99.90
31639;DHT22;18248;51.522;7.020;2022-07-06T01:06:00;16.60;99.90
31639;DHT22;18248;51.522;7.020;2022-07-06T01:08:59;16.60;99.90
31639;DHT22;18248;51.522;7.020;2022-07-06T01:11:58;16.60;99.90
31639;DHT22;18248;51.522;7.020;2022-07-06T01:14:57;16.60;99.90
31639;DHT22;18248;51.522;7.020;2022-07-06T01:17:57;16.60;99.90
31639;DHT22;18248;51.522;7.020;2022-07-06T01:21:13;16.60;99.90
31639;DHT22;18248;51.522;7.020;2022-07-06T01:24:12;16.60;99.90
31639;DHT22;18248;51.522;7.020;2022-07-06T01:27:11;16.60;99.90
31639;DHT22;18248;51.522;7.020;2022-07-06T01:30:16;16.60;99.90
31639;DHT22;18248;51.522;7.020;2022-07-06T01:33:15;16.60;99.90
31639;DHT22;18248;51.522;7.020;2022-07-06T01:36:14;16.60;99.90
31639;DHT22;18248;51.522;7.020;2022-07-06T01:39:12;16.60;99.90
31639;DHT22;18248;51.522;7.020;2022-07-06T01:42:11;16.60;99.90
31639;DHT22;18248;51.522;7.020;2022-07-06T01:45:10;16.50;99.90
31639;DHT22;18248;51.522;7.020;2022-07-06T01:48:08;16.40;99.90
31639;DHT22;18248;51.522;7.020;2022-07-06T01:51:07;16.40;99.90
31639;DHT22;18248;51.522;7.020;2022-07-06T01:54:07;16.40;99.90
31639;DHT22;18248;51.522;7.020;2022-07-06T01:57:05;16.30;99.90
31639;DHT22;18248;51.522;7.020;2022-07-06T02:00:08;16.30;99.90
31639;DHT22;18248;51.522;7.020;2022-07-06T02:03:07;16.20;99.90
31639;DHT22;18248;51.522;7.020;2022-07-06T02:06:06;16.20;99.90
31639;DHT22;18248;51.522;7.020;2022-07-06T02:09:05;16.10;99.90
31639;DHT22;18248;51.522;7.020;2022-07-06T02:12:04;16.10;99.90
31639;DHT22;18248;51.522;7.020;2022-07-06T02:15:02;16.00;99.90
31639;DHT22;18248;51.522;7.020;2022-07-06T02:18:01;16.00;99.90
31639;DHT22;18248;51.522;7.020;2022-07-06T02:21:00;15.90;99.90
31639;DHT22;18248;51.522;7.020;2022-07-06T02:23:58;15.90;99.90
31639;DHT22;18248;51.522;7.020;2022-07-06T02:26:57;15.90;99.90
31639;DHT22;18248;51.522;7.020;2022-07-06T02:29:55;15.80;99.90
31639;DHT22;18248;51.522;7.020;2022-07-06T02:32:54;15.70;99.90
31639;DHT22;18248;51.522;7.020;2022-07-06T02:35:52;15.70;99.90
31639;DHT22;18248;51.522;7.020;2022-07-06T02:38:51;15.60;99.90
31639;DHT22;18248;51.522;7.020;2022-07-06T02:41:49;15.50;99.90
31639;DHT22;18248;51.522;7.020;2022-07-06T02:44:48;15.50;99.90
31639;DHT22;18248;51.522;7.020;2022-07-06T02:47:46;15.50;99.90
31639;DHT22;18248;51.522;7.020;2022-07-06T02:50:45;15.40;99.90
31639;DHT22;18248;51.522;7.020;2022-07-06T02:53:44;15.40;99.90
31639;DHT22;18248;51.522;7.020;2022-07-06T02:56:42;15.30;99.90
31639;DHT22;18248;51.522;7.020;2022-07-06T02:59:41;15.30;99.90
31639;DHT22;18248;51.522;7.020;2022-07-06T03:02:39;15.30;99.90
31639;DHT22;18248;51.522;7.020;2022-07-06T03:05:38;15.20;99.90
31639;DHT22;18248;51.522;7.020;2022-07-06T03:08:36;15.20;99.90
31639;DHT22;18248;51.522;7.020;2022-07-06T03:11:35;15.20;99.90
31639;DHT22;18248;51.522;7.020;2022-07-06T03:14:36;15.20;99.90
31639;DHT22;18248;51.522;7.020;2022-07-06T03:17:36;15.20;99.90
31639;DHT22;18248;51.522;7.020;2022-07-06T03:20:35;15.20;99.90
31639;DHT22;18248;51.522;7.020;2022-07-06T03:23:33;15.20;99.90
31639;DHT22;18248;51.522;7.020;2022-07-06T03:26:34;15.20;99.90
31639;DHT22;18248;51.522;7.020;2022-07-06T03:29:32;15.20;99.90
31639;DHT22;18248;51.522;7.020;2022-07-06T03:32:31;15.20;99.90
31639;DHT22;18248;51.522;7.020;2022-07-06T03:35:30;15.30;99.90
31639;DHT22;18248;51.522;7.020;2022-07-06T03:38:28;15.30;99.90
31639;DHT22;18248;51.522;7.020;2022-07-06T03:41:27;15.30;99.90
31639;DHT22;18248;51.522;7.020;2022-07-06T03:44:28;15.40;99.90
31639;DHT22;18248;51.522;7.020;2022-07-06T03:47:27;15.40;99.90
31639;DHT22;18248;51.522;7.020;2022-07-06T03:50:25;15.40;99.90
31639;DHT22;18248;51.522;7.020;2022-07-06T03:53:24;15.40;99.90
31639;DHT22;18248;51.522;7.020;2022-07-06T03:56:22;15.50;99.90
31639;DHT22;18248;51.522;7.020;2022-07-06T03:59:27;15.50;99.90
31639;DHT22;18248;51.522;7.020;2022-07-06T04:02:25;15.60;99.90
31639;DHT22;18248;51.522;7.020;2022-07-06T04:05:24;15.60;99.90
31639;DHT22;18248;51.522;7.020;2022-07-06T04:08:22;15.70;99.90
31639;DHT22;18248;51.522;7.020;2022-07-06T04:11:21;15.80;99.90
31639;DHT22;18248;51.522;7.020;2022-07-06T04:14:19;15.80;99.90
31639;DHT22;18248;51.522;7.020;2022-07-06T04:17:18;15.90;99.90
31639;DHT22;18248;51.522;7.020;2022-07-06T04:20:35;15.80;99.90
31639;DHT22;18248;51.522;7.020;2022-07-06T04:23:34;15.80;99.90
31639;DHT22;18248;51.522;7.020;2022-07-06T04:26:32;15.90;99.90
31639;DHT22;18248;51.522;7.020;2022-07-06T04:29:31;15.90;99.90
31639;DHT22;18248;51.522;7.020;2022-07-06T04:32:30;15.90;99.90
31639;DHT22;18248;51.522;7.020;2022-07-06T04:35:28;16.00;99.90
31639;DHT22;18248;51.522;7.020;2022-07-06T04:38:27;16.00;99.90
31639;DHT22;18248;51.522;7.020;2022-07-06T04:41:25;16.10;99.90
31639;DHT22;18248;51.522;7.020;2022-07-06T04:44:24;16.20;99.90
31639;DHT22;18248;51.522;7.020;2022-07-06T04:47:23;16.40;99.90
31639;DHT22;18248;51.522;7.020;2022-07-06T04:50:22;16.40;99.90
31639;DHT22;18248;51.522;7.020;2022-07-06T04:53:20;16.50;99.90
31639;DHT22;18248;51.522;7.020;2022-07-06T04:56:19;16.50;99.90
31639;DHT22;18248;51.522;7.020;2022-07-06T04:59:17;16.50;99.90
31639;DHT22;18248;51.522;7.020;2022-07-06T05:02:16;16.60;99.90
31639;DHT22;18248;51.522;7.020;2022-07-06T05:05:14;17.50;99.90
31639;DHT22;18248;51.522;7.020;2022-07-06T05:08:13;18.90;99.90
31639;DHT22;18248;51.522;7.020;2022-07-06T05:11:11;20.20;99.90
31639;DHT22;18248;51.522;7.020;2022-07-06T05:14:10;21.50;99.90
31639;DHT22;18248;51.522;7.020;2022-07-06T05:17:09;22.90;99.90
31639;DHT22;18248;51.522;7.020;2022-07-06T05:20:08;23.10;99.90
31639;DHT22;18248;51.522;7.020;2022-07-06T05:23:07;22.70;99.90
31639;DHT22;18248;51.522;7.020;2022-07-06T05:26:06;22.00;99.90
31639;DHT22;18248;51.522;7.020;2022-07-06T05:29:04;21.50;99.90
31639;DHT22;18248;51.522;7.020;2022-07-06T05:32:03;21.20;99.90
31639;DHT22;18248;51.522;7.020;2022-07-06T05:35:02;20.80;99.90
31639;DHT22;18248;51.522;7.020;2022-07-06T05:38:00;20.40;99.90
31639;DHT22;18248;51.522;7.020;2022-07-06T05:40:59;19.90;99.90
31639;DHT22;18248;51.522;7.020;2022-07-06T05:43:57;19.60;99.90
31639;DHT22;18248;51.522;7.020;2022-07-06T05:46:56;19.40;99.90
31639;DHT22;18248;51.522;7.020;2022-07-06T05:50:14;19.40;99.90
31639;DHT22;18248;51.522;7.020;2022-07-06T05:53:13;19.40;99.90
31639;DHT22;18248;51.522;7.020;2022-07-06T05:56:11;19.60;99.90
31639;DHT22;18248;51.522;7.020;2022-07-06T05:59:10;19.60;99.90
31639;DHT22;18248;51.522;7.020;2022-07-06T06:02:09;19.70;99.90
31639;DHT22;18248;51.522;7.020;2022-07-06T06:05:09;19.70;99.90
31639;DHT22;18248;51.522;7.020;2022-07-06T06:08:07;19.70;99.90
31639;DHT22;18248;51.522;7.020;2022-07-06T06:11:06;19.50;99.90
31639;DHT22;18248;51.522;7.020;2022-07-06T06:14:05;19.30;99.90
31639;DHT22;18248;51.522;7.020;2022-07-06T06:17:03;19.30;99.90
31639;DHT22;18248;51.522;7.020;2022-07-06T06:20:10;19.30;99.90
31639;DHT22;18248;51.522;7.020;2022-07-06T06:23:08;19.20;99.90
31639;DHT22;18248;51.522;7.020;2022-07-06T06:26:08;19.10;99.90
31639;DHT22;18248;51.522;7.020;2022-07-06T06:29:07;18.90;99.90
31639;DHT22;18248;51.522;7.020;2022-07-06T06:32:05;18.90;99.90
31639;DHT22;18248;51.522;7.020;2022-07-06T06:35:05;18.80;99.90
31639;DHT22;18248;51.522;7.020;2022-07-06T06:38:04;18.80;99.90
31639;DHT22;18248;51.522;7.020;2022-07-06T06:41:03;18.80;99.90
31639;DHT22;18248;51.522;7.020;2022-07-06T06:44:01;18.80;99.90
31639;DHT22;18248;51.522;7.020;2022-07-06T06:47:00;18.80;99.90
31639;DHT22;18248;51.522;7.020;2022-07-06T06:49:59;18.80;99.90
31639;DHT22;18248;51.522;7.020;2022-07-06T06:52:57;18.80;99.90
31639;DHT22;18248;51.522;7.020;2022-07-06T06:55:56;19.00;99.90
31639;DHT22;18248;51.522;7.020;2022-07-06T06:58:55;19.10;99.90
31639;DHT22;18248;51.522;7.020;2022-07-06T07:01:54;19.10;99.90
31639;DHT22;18248;51.522;7.020;2022-07-06T07:04:53;19.10;99.90
31639;DHT22;18248;51.522;7.020;2022-07-06T07:07:51;19.20;99.90
31639;DHT22;18248;51.522;7.020;2022-07-06T07:10:50;19.40;99.90
31639;DHT22;18248;51.522;7.020;2022-07-06T07:13:48;19.60;99.90
31639;DHT22;18248;51.522;7.020;2022-07-06T07:16:47;19.80;99.90
31639;DHT22;18248;51.522;7.020;2022-07-06T07:19:46;20.00;99.90
31639;DHT22;18248;51.522;7.020;2022-07-06T07:22:44;20.20;99.90
31639;DHT22;18248;51.522;7.020;2022-07-06T07:25:43;20.30;99.90
31639;DHT22;18248;51.522;7.020;2022-07-06T07:28:41;20.50;99.90
31639;DHT22;18248;51.522;7.020;2022-07-06T07:31:40;20.70;99.90
31639;DHT22;18248;51.522;7.020;2022-07-06T07:34:39;21.00;99.90
31639;DHT22;18248;51.522;7.020;2022-07-06T07:37:38;21.50;99.90
31639;DHT22;18248;51.522;7.020;2022-07-06T07:40:36;22.10;99.90
31639;DHT22;18248;51.522;7.020;2022-07-06T07:43:35;22.80;99.90
31639;DHT22;18248;51.522;7.020;2022-07-06T07:46:33;23.10;99.90
31639;DHT22;18248;51.522;7.020;2022-07-06T07:49:32;23.40;99.90
31639;DHT22;18248;51.522;7.020;2022-07-06T07:52:31;23.40;99.90
31639;DHT22;18248;51.522;7.020;2022-07-06T07:55:29;23.40;99.90
31639;DHT22;18248;51.522;7.020;2022-07-06T07:58:28;24.00;99.90
31639;DHT22;18248;51.522;7.020;2022-07-06T08:01:27;25.50;99.90
31639;DHT22;18248;51.522;7.020;2022-07-06T08:04:25;26.60;97.20
31639;DHT22;18248;51.522;7.020;2022-07-06T08:07:24;26.90;93.60
31639;DHT22;18248;51.522;7.020;2022-07-06T08:10:22;27.10;91.70
31639;DHT22;18248;51.522;7.020;2022-07-06T08:13:22;27.20;88.20
31639;DHT22;18248;51.522;7.020;2022-07-06T08:16:21;26.90;84.50
31639;DHT22;18248;51.522;7.020;2022-07-06T08:19:19;26.20;83.40
31639;DHT22;18248;51.522;7.020;2022-07-06T08:22:18;25.60;82.80
31639;DHT22;18248;51.522;7.020;2022-07-06T08:25:16;25.70;84.00
31639;DHT22;18248;51.522;7.020;2022-07-06T08:28:15;26.20;83.30
31639;DHT22;18248;51.522;7.020;2022-07-06T08:31:14;26.60;80.50
31639;DHT22;18248;51.522;7.020;2022-07-06T08:34:13;26.40;79.20
31639;DHT22;18248;51.522;7.020;2022-07-06T08:37:12;25.90;79.40
31639;DHT22;18248;51.522;7.020;2022-07-06T08:40:11;25.50;80.00
31639;DHT22;18248;51.522;7.020;2022-07-06T08:43:10;25.10;80.10
31639;DHT22;18248;51.522;7.020;2022-07-06T08:46:08;24.80;80.70
31639;DHT22;18248;51.522;7.020;2022-07-06T08:49:08;24.30;81.60
31639;DHT22;18248;51.522;7.020;2022-07-06T08:52:08;23.80;82.80
31639;DHT22;18248;51.522;7.020;2022-07-06T08:55:08;23.40;84.20
31639;DHT22;18248;51.522;7.020;2022-07-06T08:58:07;23.00;85.30
31639;DHT22;18248;51.522;7.020;2022-07-06T09:01:06;23.10;86.20
31639;DHT22;18248;51.522;7.020;2022-07-06T09:04:07;23.10;85.60
31639;DHT22;18248;51.522;7.020;2022-07-06T09:07:07;22.90;87.10
31639;DHT22;18248;51.522;7.020;2022-07-06T09:10:07;22.70;87.40
31639;DHT22;18248;51.522;7.020;2022-07-06T09:13:08;22.50;87.80
31639;DHT22;18248;51.522;7.020;2022-07-06T09:16:11;22.40;88.40
31639;DHT22;18248;51.522;7.020;2022-07-06T09:19:11;22.10;89.70
31639;DHT22;18248;51.522;7.020;2022-07-06T09:22:31;22.10;90.00
31639;DHT22;18248;51.522;7.020;2022-07-06T09:25:30;22.10;89.40
31639;DHT22;18248;51.522;7.020;2022-07-06T09:28:44;21.90;90.00
31639;DHT22;18248;51.522;7.020;2022-07-06T09:32:02;21.90;90.00
31639;DHT22;18248;51.522;7.020;2022-07-06T09:35:01;21.90;90.00
31639;DHT22;18248;51.522;7.020;2022-07-06T09:38:09;21.70;90.50
31639;DHT22;18248;51.522;7.020;2022-07-06T09:41:09;21.90;91.20
31639;DHT22;18248;51.522;7.020;2022-07-06T09:44:09;22.30;90.60
31639;DHT22;18248;51.522;7.020;2022-07-06T09:47:10;22.40;90.40
31639;DHT22;18248;51.522;7.020;2022-07-06T09:50:09;22.40;90.10
31639;DHT22;18248;51.522;7.020;2022-07-06T09:53:07;22.40;89.60
31639;DHT22;18248;51.522;7.020;2022-07-06T09:56:06;22.30;90.10
31639;DHT22;18248;51.522;7.020;2022-07-06T09:59:11;22.40;90.20
31639;DHT22;18248;51.522;7.020;2022-07-06T10:02:10;22.30;90.00
31639;DHT22;18248;51.522;7.020;2022-07-06T10:05:12;22.10;90.10
31639;DHT22;18248;51.522;7.020;2022-07-06T10:08:10;22.20;90.30
31639;DHT22;18248;51.522;7.020;2022-07-06T10:11:09;22.20;90.40
31639;DHT22;18248;51.522;7.020;2022-07-06T10:14:17;22.40;89.90
31639;DHT22;18248;51.522;7.020;2022-07-06T10:17:16;22.60;90.10
31639;DHT22;18248;51.522;7.020;2022-07-06T10:20:15;23.20;89.50
31639;DHT22;18248;51.522;7.020;2022-07-06T10:23:14;23.70;89.60
31639;DHT22;18248;51.522;7.020;2022-07-06T10:26:14;24.20;84.50
31639;DHT22;18248;51.522;7.020;2022-07-06T10:29:14;24.20;83.50
31639;DHT22;18248;51.522;7.020;2022-07-06T10:32:13;24.30;83.20
31639;DHT22;18248;51.522;7.020;2022-07-06T10:35:13;24.20;82.40
31639;DHT22;18248;51.522;7.020;2022-07-06T10:38:12;24.10;80.70
31639;DHT22;18248;51.522;7.020;2022-07-06T10:41:12;24.00;80.70
31639;DHT22;18248;51.522;7.020;2022-07-06T10:44:19;23.90;80.50
31639;DHT22;18248;51.522;7.020;2022-07-06T10:47:27;23.90;80.30
31639;DHT22;18248;51.522;7.020;2022-07-06T10:50:34;24.20;80.70
31639;DHT22;18248;51.522;7.020;2022-07-06T10:53:35;24.40;79.60
31639;DHT22;18248;51.522;7.020;2022-07-06T10:57:01;24.80;81.30
31639;DHT22;18248;51.522;7.020;2022-07-06T11:00:09;24.70;74.30
31639;DHT22;18248;51.522;7.020;2022-07-06T11:03:38;24.50;76.30
31639;DHT22;18248;51.522;7.020;2022-07-06T11:06:39;24.40;77.90
31639;DHT22;18248;51.522;7.020;2022-07-06T11:09:38;24.30;78.50
31639;DHT22;18248;51.522;7.020;2022-07-06T11:12:37;24.10;77.70
31639;DHT22;18248;51.522;7.020;2022-07-06T11:15:49;23.80;78.80
31639;DHT22;18248;51.522;7.020;2022-07-06T11:19:05;23.70;79.10
31639;DHT22;18248;51.522;7.020;2022-07-06T11:22:09;23.90;79.60
31639;DHT22;18248;51.522;7.020;2022-07-06T11:25:08;24.00;78.70
31639;DHT22;18248;51.522;7.020;2022-07-06T11:28:07;24.00;79.30
31639;DHT22;18248;51.522;7.020;2022-07-06T11:31:05;24.20;78.50
31639;DHT22;18248;51.522;7.020;2022-07-06T11:34:05;24.30;78.60
31639;DHT22;18248;51.522;7.020;2022-07-06T11:37:09;24.20;79.20
31639;DHT22;18248;51.522;7.020;2022-07-06T11:40:08;24.40;77.80
31639;DHT22;18248;51.522;7.020;2022-07-06T11:43:06;24.90;77.80
31639;DHT22;18248;51.522;7.020;2022-07-06T11:46:06;25.10;78.20
31639;DHT22;18248;51.522;7.020;2022-07-06T11:49:07;25.40;77.10
31639;DHT22;18248;51.522;7.020;2022-07-06T11:52:10;25.60;75.80
31639;DHT22;18248;51.522;7.020;2022-07-06T11:55:09;25.80;75.00
31639;DHT22;18248;51.522;7.020;2022-07-06T11:58:12;26.00;73.90
31639;DHT22;18248;51.522;7.020;2022-07-06T12:01:11;26.10;73.50
31639;DHT22;18248;51.522;7.020;2022-07-06T12:04:10;26.20;72.40
31639;DHT22;18248;51.522;7.020;2022-07-06T12:07:11;26.10;69.40
31639;DHT22;18248;51.522;7.020;2022-07-06T12:10:10;26.00;69.10
31639;DHT22;18248;51.522;7.020;2022-07-06T12:13:09;25.70;68.40
31639;DHT22;18248;51.522;7.020;2022-07-06T12:16:12;25.80;70.00
31639;DHT22;18248;51.522;7.020;2022-07-06T12:19:10;26.00;69.60
31639;DHT22;18248;51.522;7.020;2022-07-06T12:22:10;26.10;71.40
31639;DHT22;18248;51.522;7.020;2022-07-06T12:25:09;25.80;69.50
31639;DHT22;18248;51.522;7.020;2022-07-06T12:28:21;25.70;70.60
31639;DHT22;18248;51.522;7.020;2022-07-06T12:31:40;25.90;68.90
31639;DHT22;18248;51.522;7.020;2022-07-06T12:34:39;25.70;69.20
31639;DHT22;18248;51.522;7.020;2022-07-06T12:37:37;25.80;71.00
31639;DHT22;18248;51.522;7.020;2022-07-06T12:40:36;26.10;70.90
31639;DHT22;18248;51.522;7.020;2022-07-06T12:43:40;26.00;69.50
31639;DHT22;18248;51.522;7.020;2022-07-06T12:46:41;25.80;69.10
31639;DHT22;18248;51.522;7.020;2022-07-06T12:49:40;25.50;69.80
31639;DHT22;18248;51.522;7.020;2022-07-06T12:52:41;25.30;69.60
31639;DHT22;18248;51.522;7.020;2022-07-06T12:55:40;25.10;70.50
31639;DHT22;18248;51.522;7.020;2022-07-06T12:58:39;25.30;70.90
31639;DHT22;18248;51.522;7.020;2022-07-06T13:01:47;25.40;70.00
31639;DHT22;18248;51.522;7.020;2022-07-06T13:04:55;25.20;69.60
31639;DHT22;18248;51.522;7.020;2022-07-06T13:07:57;25.10;70.10
31639;DHT22;18248;51.522;7.020;2022-07-06T13:10:56;24.90;70.30
31639;DHT22;18248;51.522;7.020;2022-07-06T13:13:54;25.10;70.50
31639;DHT22;18248;51.522;7.020;2022-07-06T13:16:54;25.30;68.80
31639;DHT22;18248;51.522;7.020;2022-07-06T13:19:53;25.40;69.80
31639;DHT22;18248;51.522;7.020;2022-07-06T13:22:52;25.80;70.10
31639;DHT22;18248;51.522;7.020;2022-07-06T13:25:50;26.00;68.10
31639;DHT22;18248;51.522;7.020;2022-07-06T13:28:49;26.00;67.40
31639;DHT22;18248;51.522;7.020;2022-07-06T13:31:48;25.60;67.70
31639;DHT22;18248;51.522;7.020;2022-07-06T13:34:48;25.50;69.00
31639;DHT22;18248;51.522;7.020;2022-07-06T13:37:46;25.60;68.50
31639;DHT22;18248;51.522;7.020;2022-07-06T13:40:47;25.80;68.70
31639;DHT22;18248;51.522;7.020;2022-07-06T13:43:46;25.80;67.10
31639;DHT22;18248;51.522;7.020;2022-07-06T13:46:45;25.80;67.30
31639;DHT22;18248;51.522;7.020;2022-07-06T13:49:43;25.80;67.30
31639;DHT22;18248;51.522;7.020;2022-07-06T13:52:45;26.00;67.70
31639;DHT22;18248;51.522;7.020;2022-07-06T13:55:44;26.00;67.20
31639;DHT22;18248;51.522;7.020;2022-07-06T13:58:43;25.90;67.10
31639;DHT22;18248;51.522;7.020;2022-07-06T14:01:42;25.80;67.40
31639;DHT22;18248;51.522;7.020;2022-07-06T14:04:40;26.00;67.60
31639;DHT22;18248;51.522;7.020;2022-07-06T14:07:39;26.20;67.60
31639;DHT22;18248;51.522;7.020;2022-07-06T14:10:38;26.30;66.50
31639;DHT22;18248;51.522;7.020;2022-07-06T14:13:37;26.40;66.60
31639;DHT22;18248;51.522;7.020;2022-07-06T14:16:36;26.60;67.40
31639;DHT22;18248;51.522;7.020;2022-07-06T14:19:34;26.80;66.20
31639;DHT22;18248;51.522;7.020;2022-07-06T14:22:33;26.60;65.10
31639;DHT22;18248;51.522;7.020;2022-07-06T14:25:32;26.40;65.10
31639;DHT22;18248;51.522;7.020;2022-07-06T14:28:31;26.40;64.90
31639;DHT22;18248;51.522;7.020;2022-07-06T14:31:30;26.30;64.50
31639;DHT22;18248;51.522;7.020;2022-07-06T14:34:28;26.50;65.50
31639;DHT22;18248;51.522;7.020;2022-07-06T14:37:27;26.80;65.00
31639;DHT22;18248;51.522;7.020;2022-07-06T14:40:25;26.50;64.70
31639;DHT22;18248;51.522;7.020;2022-07-06T14:43:24;26.30;65.50
31639;DHT22;18248;51.522;7.020;2022-07-06T14:46:23;26.20;65.50
31639;DHT22;18248;51.522;7.020;2022-07-06T14:49:23;25.90;65.50
31639;DHT22;18248;51.522;7.020;2022-07-06T14:52:23;25.80;65.80
31639;DHT22;18248;51.522;7.020;2022-07-06T14:55:21;25.80;65.40
31639;DHT22;18248;51.522;7.020;2022-07-06T14:58:20;25.70;65.70
31639;DHT22;18248;51.522;7.020;2022-07-06T15:01:21;25.90;66.40
31639;DHT22;18248;51.522;7.020;2022-07-06T15:04:19;26.10;65.80
31639;DHT22;18248;51.522;7.020;2022-07-06T15:07:18;26.40;65.60
31639;DHT22;18248;51.522;7.020;2022-07-06T15:10:16;26.60;64.70
31639;DHT22;18248;51.522;7.020;2022-07-06T15:13:15;26.20;63.40
31639;DHT22;18248;51.522;7.020;2022-07-06T15:16:14;25.80;64.30
31639;DHT22;18248;51.522;7.020;2022-07-06T15:19:15;25.80;65.00
31639;DHT22;18248;51.522;7.020;2022-07-06T15:22:14;26.00;64.80
31639;DHT22;18248;51.522;7.020;2022-07-06T15:25:12;26.20;65.20
31639;DHT22;18248;51.522;7.020;2022-07-06T15:28:11;26.00;64.50
31639;DHT22;18248;51.522;7.020;2022-07-06T15:31:11;25.70;64.70
31639;DHT22;18248;51.522;7.020;2022-07-06T15:34:10;25.50;64.80
31639;DHT22;18248;51.522;7.020;2022-07-06T15:37:09;25.50;65.50
31639;DHT22;18248;51.522;7.020;2022-07-06T15:40:08;25.70;65.80
31639;DHT22;18248;51.522;7.020;2022-07-06T15:43:10;25.70;65.70
31639;DHT22;18248;51.522;7.020;2022-07-06T15:46:11;25.60;65.80
31639;DHT22;18248;51.522;7.020;2022-07-06T15:49:09;25.40;66.10
31639;DHT22;18248;51.522;7.020;2022-07-06T15:52:08;25.40;66.40
31639;DHT22;18248;51.522;7.020;2022-07-06T15:55:07;25.40;66.90
31639;DHT22;18248;51.522;7.020;2022-07-06T15:58:05;25.40;66.90
31639;DHT22;18248;51.522;7.020;2022-07-06T16:01:04;25.50;67.60
31639;DHT22;18248;51.522;7.020;2022-07-06T16:04:03;25.30;67.00
31639;DHT22;18248;51.522;7.020;2022-07-06T16:07:02;25.30;67.40
31639;DHT22;18248;51.522;7.020;2022-07-06T16:10:00;25.40;67.40
31639;DHT22;18248;51.522;7.020;2022-07-06T16:12:59;25.60;68.20
31639;DHT22;18248;51.522;7.020;2022-07-06T16:15:57;25.90;67.40
31639;DHT22;18248;51.522;7.020;2022-07-06T16:18:57;26.10;67.30
31639;DHT22;18248;51.522;7.020;2022-07-06T16:21:55;26.30;66.80
31639;DHT22;18248;51.522;7.020;2022-07-06T16:24:54;26.50;66.30
31639;DHT22;18248;51.522;7.020;2022-07-06T16:27:52;26.30;65.20
31639;DHT22;18248;51.522;7.020;2022-07-06T16:30:51;26.10;65.60
31639;DHT22;18248;51.522;7.020;2022-07-06T16:33:50;26.00;65.90
31639;DHT22;18248;51.522;7.020;2022-07-06T16:36:48;25.80;66.50
31639;DHT22;18248;51.522;7.020;2022-07-06T16:39:47;26.00;68.10
31639;DHT22;18248;51.522;7.020;2022-07-06T16:42:46;26.10;66.60
31639;DHT22;18248;51.522;7.020;2022-07-06T16:45:45;26.10;66.20
31639;DHT22;18248;51.522;7.020;2022-07-06T16:48:43;26.10;66.50
31639;DHT22;18248;51.522;7.020;2022-07-06T16:51:42;26.20;66.80
31639;DHT22;18248;51.522;7.020;2022-07-06T16:54:40;26.10;66.50
31639;DHT22;18248;51.522;7.020;2022-07-06T16:57:39;26.10;66.80
31639;DHT22;18248;51.522;7.020;2022-07-06T17:00:41;26.10;66.70
31639;DHT22;18248;51.522;7.020;2022-07-06T17:03:39;26.10;66.80
31639;DHT22;18248;51.522;7.020;2022-07-06T17:06:38;25.80;66.80
31639;DHT22;18248;51.522;7.020;2022-07-06T17:09:37;25.60;67.40
31639;DHT22;18248;51.522;7.020;2022-07-06T17:12:36;25.50;67.80
31639;DHT22;18248;51.522;7.020;2022-07-06T17:15:34;25.40;68.10
31639;DHT22;18248;51.522;7.020;2022-07-06T17:18:33;25.30;68.00
31639;DHT22;18248;51.522;7.020;2022-07-06T17:21:31;25.20;67.70
31639;DHT22;18248;51.522;7.020;2022-07-06T17:24:30;25.10;67.90
31639;DHT22;18248;51.522;7.020;2022-07-06T17:27:28;24.80;68.20
31639;DHT22;18248;51.522;7.020;2022-07-06T17:30:27;24.60;68.90
31639;DHT22;18248;51.522;7.020;2022-07-06T17:33:26;24.50;69.10
31639;DHT22;18248;51.522;7.020;2022-07-06T17:36:24;24.50;69.50
31639;DHT22;18248;51.522;7.020;2022-07-06T17:39:24;24.40;69.30
31639;DHT22;18248;51.522;7.020;2022-07-06T17:42:22;24.40;70.10
31639;DHT22;18248;51.522;7.020;2022-07-06T17:45:23;24.30;70.10
31639;DHT22;18248;51.522;7.020;2022-07-06T17:48:22;24.10;70.40
31639;DHT22;18248;51.522;7.020;2022-07-06T17:51:21;24.20;70.80
31639;DHT22;18248;51.522;7.020;2022-07-06T17:54:20;24.20;70.80
31639;DHT22;18248;51.522;7.020;2022-07-06T17:57:18;24.20;70.80
31639;DHT22;18248;51.522;7.020;2022-07-06T18:00:17;24.20;71.20
31639;DHT22;18248;51.522;7.020;2022-07-06T18:03:18;24.00;71.00
31639;DHT22;18248;51.522;7.020;2022-07-06T18:06:17;24.00;71.70
31639;DHT22;18248;51.522;7.020;2022-07-06T18:09:15;23.90;71.80
31639;DHT22;18248;51.522;7.020;2022-07-06T18:12:14;23.80;72.60
31639;DHT22;18248;51.522;7.020;2022-07-06T18:15:12;23.80;72.90
31639;DHT22;18248;51.522;7.020;2022-07-06T18:18:11;23.80;73.00
31639;DHT22;18248;51.522;7.020;2022-07-06T18:21:10;23.80;72.90
31639;DHT22;18248;51.522;7.020;2022-07-06T18:24:08;23.80;73.00
31639;DHT22;18248;51.522;7.020;2022-07-06T18:27:07;23.80;73.40
31639;DHT22;18248;51.522;7.020;2022-07-06T18:30:06;23.70;73.30
31639;DHT22;18248;51.522;7.020;2022-07-06T18:33:05;23.70;73.40
31639;DHT22;18248;51.522;7.020;2022-07-06T18:36:04;23.60;73.40
31639;DHT22;18248;51.522;7.020;2022-07-06T18:39:04;23.60;73.80
31639;DHT22;18248;51.522;7.020;2022-07-06T18:42:03;23.50;73.80
31639;DHT22;18248;51.522;7.020;2022-07-06T18:45:02;23.50;74.40
31639;DHT22;18248;51.522;7.020;2022-07-06T18:48:00;23.50;74.70
31639;DHT22;18248;51.522;7.020;2022-07-06T18:50:59;23.40;77.10
31639;DHT22;18248;51.522;7.020;2022-07-06T18:53:58;23.30;77.80